Grenola, KS (67346)

2:36 PM CST on February 09, 2016 (GMT -0600)
south burden | | Change Station
CLOSE
Current Station
Personal Weather Station
Location: Burden, KS
Elevation: 1385 ft
Nearby Weather Stations

Elev 1385 ft 37.31 °N, 96.75 °W | Updated 6 minutes ago

Clear
Clear
42.6 °F
Feels Like 35 °F
N
17.1
Wind Variable Wind from NE

Today
High -- | Low -- °F
--% Chance of Precip.
Yesterday
High -- | Low -- °F
Precip. -- in
Pressure 30.29 in
Visibility 10.0 miles
Clouds Clear
Windchill 35 °F
Dew Point 15 °F
Humidity 32%
Rainfall 0.00 in
Snow Depth Not available.
7:21 AM 5:58 PM
New Moon, 2% visible
METAR KWLD 091954Z AUTO 33022G27KT 10SM CLR 07/M09 A3026 RMK AO2 PK WND 32030/1904 SLP257 T00671094
Pressure 30.29 in
Visibility 10.0 miles
Clouds Clear
Windchill 35 °F
Dew Point 15 °F
Humidity 32%
Rainfall 0.00 in
Snow Depth Not available.
7:21 AM 5:58 PM
New Moon, 2% visible
METAR KWLD 091954Z AUTO 33022G27KT 10SM CLR 07/M09 A3026 RMK AO2 PK WND 32030/1904 SLP257 T00671094

10-Day Weather Forecast

Almanac

Astronomy

Feb. 09, 2016 Rise Set
Actual Time
Civil Twilight
Nautical Twilight
Astronomical Twilight
Moon
Length of Visible Light
Length of Day
Tomorrow will be .
, % of the Moon is Illuminated

Today's Extremes

State Highs State Lows

Community

WunderPhotos

Upload Photos

1,891,679 photos uploaded!

WunderBlog® & News

Nearby

Air Quality

  Air Quality AQ Index Pollutant
Not available.

Snow Depth

Station Depth Elevation

Earthquake Activity

City Distance Mag. Time & Date
Minimum magnitude displayed is 2.5.

Coastal Water Temperatures

Place Temperature

Stations

Nearby Weather Stations

Station Location Temp. Windchill Dew Point Humidity Wind Precip. Elev Updated Type
                   

Watches & Warnings

There are currently no watches in effect.